Hauptseite
METAR-TAF:

METAR-TAF

Flughäfen :

Flughafen Perth

Perth, Australien

Breite: 31-56S, Länge: 115-57E, Höhe: 20 m

Beobachtung

Neuester Wetterbericht von vor 35 Minuten, um 03:00 UTC
Wind 11 kt aus Nordost
Temperatur 19°C
Luftfeuchtigkeit 43%
Luftdruck 1033 hPa
Sichtweite 10 km oder mehr
keine Wolken unter 1500 m und keine Kumulonimbus oder Gewitterwolken

METAR: YPPH 200300Z 04011KT CAVOK 19/06 Q1033 NOSIG

Zeit: 11:35 (03:35 UTC)

Prognose

Neuester Wetterbericht von vor 4 Stunden und 45 Minuten, um 22:50 UTC
Gültige Prognose vom 20 um 00 UTC bis 21 um 06 UTC
Wind 10 kt aus Ost/Nordost
Sichtweite 10 km oder mehr
keine Wolken unter 1500 m und keine Kumulonimbus oder Gewitterwolken
Ab 21 um 0300 UTC
Wind 12 kt aus Nord/Nordost
Sichtweite 10 km oder mehr
keine Wolken unter 1500 m und keine Kumulonimbus oder Gewitterwolken

TAF: YPPH 192250Z 2000/2106 06010KT CAVOK FM210300 02012KT CAVOK

Wetterbeobachtungen und Prognosen von mehr als 4000 Flughäfen (METAR und TAF Bericht).

Die verfügbaren Stationen werden durch gelbe und rote Markierungen auf der Karte dargestellt.

Führen Sie die Maus auf sie, um den Namen der Station zu sehen.

Darauf klicken, um die Beobachtung von Wetterbeobachtungen und Prognosen zu sehen.

Um die Karte zu ändern : klicken Sie auf den grünen Tasten mit einem schwarzen Kreuz Zum Vergrößern, auf den grünen Button mit einem Gedankenstrich zu verkleinern, oder auf die grünen Pfeile für benachbarte Karten.


METAR-TAF: